Central Wisconsin Airport
KCWA : now visible

Airfield :











YOU CAN JOIN US ON...

 
LOGIN :

Register | Disclaimer

   EN    FR    IT 

 









Legend :    VFR   Marginal VFR   IFR   Intensive IFR   Very Intensive IFR
Visi :
Ceiling :
>= 8 km
>= 3000ft
5 to 8 km
1000 to 3000 ft
1500m to 5 km
500 to 1000 ft
800 to 1500m
200 to 500 ft
< 800m
< 200 ft
Symbols :   Thunderstorms  Fog  Heavy snow  Heavy precipitations  Wind > 20 kt






- Airport Elevation : 1277 ft


KCWA - Central Wisconsin

CURRENT METAR :
  • 142048Z 30012G17KT 5SM BR OVC008 M07/M09 A2974

EXPIRED METARs :
  • 141947Z 29009KT 5SM BR OVC008 M07/M09 A2972
  • 141847Z 30012G16KT 4SM BR OVC008 M07/M09 A2972

TAF KCWA
Valid from the 14 at 18:00 until the 15 at 18:00 UTC


141731Z 1418/1518 30008KT 6SM BR SCT007 OVC010
TEMPO 1418/1420 5SM -SHSN
FM142000 30009KT P6SM -SHSN OVC015
FM150000 31008KT P6SM -SHSN BKN020
FM150300 31007KT P6SM BKN025
FM150500 31005KT P6SM SCT050
FM151500 28003KT P6SM SCT060



MET'MAP, your aeronautical weather chart ! - Copyright ORBIFLY December 2007 - Disclaimer

ORBIFLY MET'MAP TEAM :

Programming & Development : Alexandra Zaïnal
Concept & original design : Baudouin d'Aumeries
Assistance for programming : Marc-Olivier Méhu
Technical & hardware support : Manuel Goepfert

Contact : metmap@orbifly.com




SOURCES & CREDITS :

   NOAA       Earth
Advisory